createdAt,value
2024-02-02T00:02:19.612Z,46.38
2024-02-02T00:04:46.284Z,43.88
2024-02-02T00:07:12.999Z,79.65
2024-02-02T00:09:39.908Z,54.55
2024-02-02T00:12:11.977Z,61.28
2024-02-02T00:14:39.191Z,68.78
2024-02-02T00:19:35.644Z,65.82
2024-02-02T00:22:02.396Z,69.70
2024-02-02T00:24:29.155Z,66.63
2024-02-02T00:26:55.844Z,59.20
2024-02-02T00:29:22.472Z,53.22
2024-02-02T00:31:49.173Z,48.80
2024-02-02T00:34:16.063Z,46.55
2024-02-02T00:36:42.918Z,35.58
2024-02-02T00:39:09.677Z,39.42
2024-02-02T00:41:36.398Z,42.25
2024-02-02T00:44:04.574Z,110.38
2024-02-02T00:46:31.367Z,107.22
2024-02-02T00:48:58.199Z,51.42
2024-02-02T00:51:25.483Z,46.50
2024-02-02T00:53:52.285Z,147.77
2024-02-02T00:56:18.980Z,71.00
2024-02-02T00:58:45.638Z,55.45
2024-02-02T01:01:12.345Z,55.58
2024-02-02T01:03:39.245Z,52.15
2024-02-02T01:06:06.186Z,58.33
2024-02-02T01:08:33.029Z,56.70
2024-02-02T01:11:01.833Z,49.78
2024-02-02T01:13:30.293Z,46.65
2024-02-02T01:15:57.732Z,42.85
2024-02-02T01:18:24.513Z,40.85
2024-02-02T01:20:51.489Z,43.22
2024-02-02T01:23:18.288Z,35.65
2024-02-02T01:25:44.944Z,33.90
2024-02-02T01:28:11.859Z,36.30
2024-02-02T01:30:38.945Z,47.85
2024-02-02T01:33:06.155Z,44.20
2024-02-02T01:35:32.945Z,39.03
2024-02-02T01:37:59.577Z,50.00
2024-02-02T01:40:26.288Z,44.55
2024-02-02T01:42:52.939Z,94.80
2024-02-02T01:45:19.719Z,78.82
2024-02-02T01:47:47.052Z,75.63
2024-02-02T01:50:13.862Z,51.92
2024-02-02T01:52:40.798Z,42.25
2024-02-02T01:55:08.562Z,46.67
2024-02-02T01:57:35.279Z,50.10
2024-02-02T02:00:03.435Z,51.25
2024-02-02T02:02:30.394Z,49.33
2024-02-02T02:04:57.072Z,44.55
2024-02-02T02:07:23.825Z,44.17
2024-02-02T02:09:50.559Z,51.35
2024-02-02T02:12:17.628Z,44.25
2024-02-02T02:19:39.336Z,54.63
2024-02-02T02:22:06.070Z,55.47
2024-02-02T02:24:32.903Z,56.55
2024-02-02T02:26:59.746Z,50.60
2024-02-02T02:29:26.431Z,48.05
2024-02-02T02:31:57.143Z,47.47
2024-02-02T02:34:28.453Z,53.20
2024-02-02T02:36:55.829Z,50.00
2024-02-02T02:39:22.724Z,53.75
2024-02-02T02:41:49.935Z,47.00
2024-02-02T02:46:43.898Z,52.55
2024-02-02T02:49:10.886Z,47.33
2024-02-02T02:51:37.684Z,50.78
2024-02-02T02:54:04.562Z,48.92
2024-02-02T02:56:31.319Z,46.05
2024-02-02T02:58:58.101Z,47.95
2024-02-02T03:01:24.864Z,44.25
2024-02-02T03:03:51.661Z,50.13
2024-02-02T03:06:18.337Z,47.63
2024-02-02T03:08:45.553Z,51.40
2024-02-02T03:13:39.241Z,46.83
2024-02-02T03:16:06.611Z,48.53
2024-02-02T03:18:33.415Z,46.85
2024-02-02T03:21:00.275Z,51.22
2024-02-02T03:23:27.175Z,45.72
2024-02-02T03:25:53.838Z,51.33
2024-02-02T03:28:20.426Z,35.53
2024-02-02T03:30:47.161Z,48.63
2024-02-02T03:33:13.940Z,41.75
2024-02-02T03:35:40.979Z,54.83
2024-02-02T03:38:07.738Z,46.25
2024-02-02T03:40:34.445Z,53.15
2024-02-02T03:43:01.248Z,51.75
2024-02-02T03:45:27.912Z,54.58
2024-02-02T03:47:54.741Z,50.78
2024-02-02T03:50:21.550Z,52.72
2024-02-02T03:52:48.920Z,61.72
2024-02-02T03:55:15.870Z,71.35
2024-02-02T03:57:42.688Z,70.93
2024-02-02T04:00:11.236Z,59.75
2024-02-02T04:02:38.106Z,59.05
2024-02-02T04:05:06.531Z,58.05
2024-02-02T04:07:33.277Z,73.35
2024-02-02T04:09:59.934Z,74.93
2024-02-02T04:12:26.625Z,81.68
2024-02-02T04:14:53.484Z,54.30
2024-02-02T04:17:20.135Z,50.88
2024-02-02T04:19:46.839Z,55.70
2024-02-02T04:22:13.540Z,55.80
2024-02-02T04:24:40.231Z,54.83
2024-02-02T04:27:07.097Z,60.47
2024-02-02T04:29:34.026Z,56.67
2024-02-02T04:32:00.702Z,56.92
2024-02-02T04:34:27.811Z,60.00
2024-02-02T04:39:21.115Z,68.82
2024-02-02T04:41:47.942Z,51.80
2024-02-02T04:44:14.641Z,66.13
2024-02-02T04:46:41.256Z,61.67
2024-02-02T04:49:08.206Z,56.95
2024-02-02T04:51:35.112Z,49.08
2024-02-02T04:54:01.854Z,55.03
2024-02-02T04:56:28.704Z,52.28
2024-02-02T04:58:55.381Z,54.80
2024-02-02T05:01:22.238Z,55.90
2024-02-02T05:03:49.101Z,43.72
2024-02-02T05:06:17.999Z,66.60
2024-02-02T05:08:47.822Z,79.88
2024-02-02T05:11:14.666Z,95.80
2024-02-02T05:13:41.282Z,301.50
2024-02-02T05:16:09.085Z,201.95
2024-02-02T05:18:36.841Z,154.43
2024-02-02T05:21:03.820Z,97.47
2024-02-02T05:23:30.512Z,112.82
2024-02-02T05:25:57.300Z,133.13
2024-02-02T05:28:23.999Z,123.43
2024-02-02T05:30:50.991Z,77.40
2024-02-02T05:33:17.901Z,37.95
2024-02-02T05:35:44.691Z,33.35
2024-02-02T05:38:11.285Z,18.13
2024-02-02T05:40:38.121Z,21.48
2024-02-02T05:43:05.946Z,21.25
2024-02-02T05:45:32.751Z,21.95
2024-02-02T05:47:59.597Z,23.55
2024-02-02T05:50:26.262Z,25.52
2024-02-02T05:52:52.897Z,29.33
2024-02-02T05:55:19.652Z,19.63
2024-02-02T05:57:46.291Z,29.40
2024-02-02T06:00:13.864Z,29.70
2024-02-02T06:02:40.562Z,22.23
2024-02-02T06:05:07.336Z,25.13
2024-02-02T06:07:34.107Z,20.08
2024-02-02T06:10:00.762Z,17.60
2024-02-02T06:12:27.425Z,14.30
2024-02-02T06:14:54.208Z,15.30
2024-02-02T06:17:20.844Z,11.60
2024-02-02T06:19:47.846Z,14.73
2024-02-02T06:22:14.584Z,17.55
2024-02-02T06:24:41.368Z,16.42
2024-02-02T06:27:08.233Z,19.38
2024-02-02T06:29:35.738Z,21.27
2024-02-02T06:32:02.663Z,88.03
2024-02-02T06:34:29.471Z,35.70
2024-02-02T06:36:56.159Z,74.10
2024-02-02T06:39:22.870Z,42.50
2024-02-02T06:41:49.572Z,34.17
2024-02-02T06:44:16.338Z,26.20
2024-02-02T06:46:43.597Z,29.23
2024-02-02T06:49:10.439Z,26.23
2024-02-02T06:51:37.195Z,24.00
2024-02-02T06:54:04.306Z,21.70
2024-02-02T06:56:33.774Z,24.83
2024-02-02T06:59:00.599Z,24.35
2024-02-02T07:01:28.502Z,21.33
2024-02-02T07:03:56.449Z,22.98
2024-02-02T07:06:23.552Z,22.08
2024-02-02T07:08:51.252Z,22.52
2024-02-02T07:11:40.870Z,19.65
2024-02-02T07:14:10.916Z,19.77
2024-02-02T07:16:38.066Z,23.10
2024-02-02T07:19:05.433Z,23.92
2024-02-02T07:21:34.855Z,23.05
2024-02-02T07:24:04.212Z,22.35
2024-02-02T07:26:32.239Z,22.73
2024-02-02T07:28:59.773Z,22.27
2024-02-02T07:31:35.747Z,22.52
2024-02-02T07:34:41.207Z,21.58
2024-02-02T07:37:32.468Z,23.52
2024-02-02T07:40:00.798Z,23.98
2024-02-02T07:42:38.095Z,21.65
2024-02-02T07:45:11.939Z,21.73
2024-02-02T07:47:38.681Z,22.65
2024-02-02T07:50:05.641Z,29.58
2024-02-02T07:52:32.360Z,26.38
2024-02-02T07:54:59.113Z,22.65
2024-02-02T07:57:26.187Z,26.65
2024-02-02T07:59:52.931Z,28.90
2024-02-02T08:02:20.129Z,22.80
2024-02-02T08:04:47.107Z,28.02
2024-02-02T08:07:13.990Z,25.10
2024-02-02T08:09:40.875Z,25.50
2024-02-02T08:12:08.314Z,22.83
2024-02-02T08:14:36.355Z,24.50
2024-02-02T08:17:08.426Z,20.02
2024-02-02T08:19:37.771Z,22.85
2024-02-02T08:22:05.421Z,23.98
2024-02-02T08:24:32.303Z,22.73
2024-02-02T08:26:59.083Z,20.50
2024-02-02T08:29:26.004Z,28.25
2024-02-02T08:31:52.855Z,23.05
2024-02-02T08:34:19.836Z,20.30
2024-02-02T08:36:46.749Z,21.17
2024-02-02T08:39:15.029Z,30.98
2024-02-02T08:41:41.781Z,23.75
2024-02-02T08:44:22.293Z,27.33
2024-02-02T08:46:52.640Z,23.50
2024-02-02T08:49:38.886Z,21.70
2024-02-02T08:52:10.892Z,26.58
2024-02-02T08:54:39.137Z,27.48
2024-02-02T08:57:25.245Z,30.52
2024-02-02T08:59:54.294Z,30.10
2024-02-02T09:03:30.239Z,28.98
2024-02-02T09:08:26.915Z,23.88
2024-02-02T09:11:16.254Z,30.45
2024-02-02T09:13:45.785Z,35.03
2024-02-02T09:16:20.475Z,23.67
2024-02-02T09:18:55.868Z,26.30
2024-02-02T09:21:32.470Z,24.30
2024-02-02T09:23:59.410Z,18.67
2024-02-02T09:26:41.453Z,29.23
2024-02-02T09:29:10.930Z,22.35
2024-02-02T09:31:39.154Z,18.50
2024-02-02T09:34:10.235Z,16.58
2024-02-02T09:36:40.942Z,15.40
2024-02-02T09:39:28.759Z,18.77
2024-02-02T09:42:17.912Z,15.85
2024-02-02T09:44:47.790Z,16.00
2024-02-02T09:47:35.372Z,16.55
2024-02-02T09:50:25.102Z,18.83
2024-02-02T09:53:11.383Z,30.05
2024-02-02T09:55:38.250Z,15.60
2024-02-02T09:58:31.022Z,13.02
2024-02-02T10:01:24.361Z,29.02
2024-02-02T10:04:12.863Z,16.60
2024-02-02T10:06:53.789Z,17.35
2024-02-02T10:09:43.639Z,17.98
2024-02-02T10:12:13.891Z,15.88
2024-02-02T10:15:10.502Z,16.08
2024-02-02T10:18:15.812Z,15.55
2024-02-02T10:20:49.074Z,15.48
2024-02-02T10:23:37.478Z,14.05
2024-02-02T10:26:04.464Z,13.40
2024-02-02T10:28:58.296Z,12.25
2024-02-02T10:32:00.379Z,38.70
2024-02-02T10:34:52.160Z,16.60
2024-02-02T10:37:42.006Z,12.80
2024-02-02T10:40:13.413Z,18.73
2024-02-02T10:43:04.528Z,11.18
2024-02-02T10:45:42.352Z,13.35
2024-02-02T10:48:24.617Z,12.95
2024-02-02T10:51:05.701Z,11.15
2024-02-02T10:54:01.670Z,11.77
2024-02-02T10:56:40.532Z,23.83
2024-02-02T10:59:31.734Z,14.23
2024-02-02T11:02:11.835Z,15.75
2024-02-02T11:05:06.567Z,11.95
2024-02-02T11:07:54.294Z,13.65
2024-02-02T11:10:30.442Z,11.32
2024-02-02T11:13:12.413Z,8.50
2024-02-02T11:15:46.543Z,10.07
2024-02-02T11:18:31.926Z,9.23
2024-02-02T11:21:18.968Z,9.63
2024-02-02T11:26:32.138Z,10.73
2024-02-02T11:29:22.394Z,9.80
2024-02-02T11:31:55.954Z,23.63
2024-02-02T11:34:50.494Z,9.38
2024-02-02T11:37:34.065Z,8.68
2024-02-02T11:40:10.092Z,10.52
2024-02-02T11:42:38.414Z,11.48
2024-02-02T11:45:08.699Z,8.68
2024-02-02T11:47:47.538Z,10.32
2024-02-02T11:50:18.577Z,9.65
2024-02-02T11:52:53.007Z,11.40
2024-02-02T11:55:24.334Z,9.98
2024-02-02T11:57:56.516Z,13.35
2024-02-02T12:00:35.676Z,9.98
2024-02-02T12:03:44.020Z,10.52
2024-02-02T12:06:21.982Z,8.15
2024-02-02T12:09:05.908Z,10.10
2024-02-02T12:11:44.130Z,11.30
2024-02-02T12:14:22.654Z,8.98
2024-02-02T12:16:49.481Z,9.23
2024-02-02T12:19:17.148Z,7.13
2024-02-02T12:21:45.930Z,8.00
2024-02-02T12:24:14.150Z,8.35
2024-02-02T12:26:42.245Z,8.38
2024-02-02T12:29:09.830Z,6.75
2024-02-02T12:31:36.932Z,7.60
2024-02-02T12:34:04.124Z,9.45
2024-02-02T12:36:30.930Z,8.10
2024-02-02T12:39:07.525Z,8.32
2024-02-02T12:41:35.853Z,6.68
2024-02-02T12:44:03.187Z,6.93
2024-02-02T12:46:30.163Z,8.32
2024-02-02T12:48:57.306Z,6.95
2024-02-02T12:51:24.422Z,7.65
2024-02-02T12:53:51.463Z,8.40
2024-02-02T12:56:19.188Z,7.63
2024-02-02T12:58:46.300Z,7.30
2024-02-02T13:01:13.138Z,9.38
2024-02-02T13:03:44.375Z,7.53
2024-02-02T13:06:13.084Z,16.20
2024-02-02T13:08:42.251Z,8.27
2024-02-02T13:11:20.490Z,7.28
2024-02-02T13:13:47.662Z,8.10
2024-02-02T13:16:28.093Z,8.27
2024-02-02T13:18:55.138Z,9.38
2024-02-02T13:21:30.011Z,8.73
2024-02-02T13:23:58.221Z,9.20
2024-02-02T13:26:40.458Z,9.25
2024-02-02T13:29:09.356Z,6.93
2024-02-02T13:31:39.168Z,7.80
2024-02-02T13:34:06.792Z,7.18
2024-02-02T13:36:40.668Z,10.00
2024-02-02T13:39:07.725Z,8.73
2024-02-02T13:41:37.822Z,8.93
2024-02-02T13:44:09.376Z,8.70
2024-02-02T13:46:46.648Z,9.10
2024-02-02T13:49:33.226Z,9.20
2024-02-02T13:52:05.897Z,10.35
2024-02-02T13:54:34.555Z,10.25
2024-02-02T13:57:01.480Z,25.30
2024-02-02T13:59:28.424Z,9.25
2024-02-02T14:02:04.945Z,18.05
2024-02-02T14:04:31.973Z,9.90
2024-02-02T14:06:58.789Z,10.30
2024-02-02T14:09:25.736Z,10.45
2024-02-02T14:12:02.185Z,9.18
2024-02-02T14:14:29.698Z,10.18
2024-02-02T14:19:33.634Z,10.18
2024-02-02T14:22:12.185Z,12.15
2024-02-02T14:24:49.628Z,11.70
2024-02-02T14:27:16.991Z,10.75
2024-02-02T14:29:44.757Z,11.20
2024-02-02T14:32:12.613Z,10.52
2024-02-02T14:34:39.726Z,10.50
2024-02-02T14:37:09.443Z,9.38
2024-02-02T14:39:36.346Z,9.10
2024-02-02T14:42:03.796Z,10.48
2024-02-02T14:44:30.673Z,11.02
2024-02-02T14:46:57.929Z,23.98
2024-02-02T14:51:54.953Z,12.85
2024-02-02T14:54:22.390Z,13.00
2024-02-02T14:56:49.563Z,9.15
2024-02-02T14:59:22.282Z,10.88
2024-02-02T15:01:49.458Z,12.68
2024-02-02T15:04:17.174Z,14.98
2024-02-02T15:06:44.981Z,13.13
2024-02-02T15:09:15.328Z,15.00
2024-02-02T15:11:45.832Z,12.43
2024-02-02T15:14:13.636Z,10.82
2024-02-02T15:16:40.700Z,9.90
2024-02-02T15:19:07.540Z,14.25
2024-02-02T15:21:34.648Z,14.52
2024-02-02T15:24:02.417Z,11.57
2024-02-02T15:26:29.363Z,12.43
2024-02-02T15:28:56.110Z,11.38
2024-02-02T15:31:23.970Z,12.18
2024-02-02T15:33:50.896Z,23.63
2024-02-02T15:36:18.088Z,27.20
2024-02-02T15:39:05.748Z,30.58
2024-02-02T15:41:31.633Z,15.20
2024-02-02T15:43:58.392Z,22.00
2024-02-02T15:46:25.297Z,23.23
2024-02-02T15:48:52.780Z,18.15
2024-02-02T15:51:20.342Z,12.15
2024-02-02T15:53:47.933Z,13.82
2024-02-02T15:56:18.478Z,17.00
2024-02-02T15:58:45.329Z,14.88
2024-02-02T16:01:15.735Z,16.02
2024-02-02T16:03:43.436Z,20.63
2024-02-02T16:06:12.389Z,20.05
2024-02-02T16:08:39.658Z,19.30
2024-02-02T16:11:06.424Z,16.10
2024-02-02T16:13:33.128Z,16.23
2024-02-02T16:16:00.335Z,17.63
2024-02-02T16:18:27.559Z,17.38
2024-02-02T16:25:48.202Z,16.25
2024-02-02T16:28:14.929Z,16.33
2024-02-02T16:30:43.632Z,14.77
2024-02-02T16:33:10.817Z,22.58
2024-02-02T16:35:37.722Z,18.27
2024-02-02T16:38:04.942Z,17.25
2024-02-02T16:40:31.651Z,23.23
2024-02-02T16:42:58.409Z,16.90
2024-02-02T16:45:25.181Z,17.02
2024-02-02T16:47:54.204Z,16.75
2024-02-02T16:50:20.977Z,17.00
2024-02-02T16:52:47.896Z,15.65
2024-02-02T16:55:14.750Z,17.40
2024-02-02T16:57:41.819Z,14.05
2024-02-02T17:00:12.599Z,11.85
2024-02-02T17:02:39.670Z,14.40
2024-02-02T17:05:07.387Z,15.20
2024-02-02T17:07:34.361Z,15.15
2024-02-02T17:10:01.116Z,17.95
2024-02-02T17:12:28.046Z,18.30
2024-02-02T17:14:54.827Z,20.30
2024-02-02T17:17:21.617Z,13.80
2024-02-02T17:19:48.559Z,20.50
2024-02-02T17:22:15.274Z,18.33
2024-02-02T17:24:42.326Z,14.88
2024-02-02T17:27:09.409Z,18.08
2024-02-02T17:29:40.610Z,18.15
2024-02-02T17:32:07.770Z,20.48
2024-02-02T17:34:35.021Z,29.08
2024-02-02T17:39:28.347Z,16.63
2024-02-02T17:41:55.484Z,17.27
2024-02-02T17:44:24.764Z,15.27
2024-02-02T17:46:53.934Z,14.65
2024-02-02T17:49:20.931Z,20.48
2024-02-02T17:51:47.898Z,17.13
2024-02-02T17:54:14.842Z,16.92
2024-02-02T17:56:41.540Z,20.48
2024-02-02T17:59:08.319Z,23.83
2024-02-02T18:01:35.348Z,19.05
2024-02-02T18:04:02.471Z,21.20
2024-02-02T18:06:29.371Z,22.73
2024-02-02T18:08:56.322Z,19.83
2024-02-02T18:11:23.104Z,20.80
2024-02-02T18:13:49.989Z,17.40
2024-02-02T18:16:16.866Z,20.95
2024-02-02T18:18:43.741Z,21.23
2024-02-02T18:21:10.925Z,23.20
2024-02-02T18:23:38.122Z,20.60
2024-02-02T18:26:05.412Z,20.17
2024-02-02T18:28:32.711Z,16.45
2024-02-02T18:30:59.405Z,25.33
2024-02-02T18:33:26.321Z,21.27
2024-02-02T18:35:53.309Z,18.45
2024-02-02T18:38:20.075Z,17.02
2024-02-02T18:40:51.253Z,36.60
2024-02-02T18:43:18.825Z,16.15
2024-02-02T18:45:45.808Z,14.20
2024-02-02T18:48:12.795Z,14.07
2024-02-02T18:50:39.815Z,19.58
2024-02-02T18:53:06.597Z,18.85
2024-02-02T18:55:33.583Z,15.52
2024-02-02T18:58:00.447Z,16.48
2024-02-02T19:00:27.598Z,16.10
2024-02-02T19:02:54.732Z,44.72
2024-02-02T19:05:22.104Z,24.98
2024-02-02T19:07:48.955Z,18.77
2024-02-02T19:10:17.428Z,36.65
2024-02-02T19:12:44.362Z,39.17
2024-02-02T19:15:11.293Z,32.85
2024-02-02T19:17:38.146Z,38.05
2024-02-02T19:20:05.289Z,50.67
2024-02-02T19:22:32.306Z,50.53
2024-02-02T19:24:59.823Z,50.63
2024-02-02T19:27:26.847Z,28.52
2024-02-02T19:29:53.661Z,29.77
2024-02-02T19:32:21.003Z,26.70
2024-02-02T19:34:48.326Z,30.67
2024-02-02T19:39:41.953Z,26.15
2024-02-02T19:42:08.771Z,24.17
2024-02-02T19:44:35.722Z,22.55
2024-02-02T19:47:02.427Z,20.02
2024-02-02T19:49:29.320Z,19.40
2024-02-02T19:51:56.224Z,20.88
2024-02-02T19:54:23.212Z,27.15
2024-02-02T19:56:50.052Z,25.95
2024-02-02T19:59:16.852Z,32.50
2024-02-02T20:01:49.524Z,31.27
2024-02-02T20:04:16.681Z,32.08
2024-02-02T20:06:43.589Z,28.42
2024-02-02T20:09:10.779Z,21.42
2024-02-02T20:11:38.188Z,28.17
2024-02-02T20:14:05.121Z,24.33
2024-02-02T20:16:35.202Z,19.20
2024-02-02T20:19:02.015Z,20.42
2024-02-02T20:21:29.538Z,22.42
2024-02-02T20:23:56.634Z,28.02
2024-02-02T20:26:24.374Z,25.02
2024-02-02T20:28:52.747Z,25.80
2024-02-02T20:31:19.808Z,32.38
2024-02-02T20:33:46.726Z,24.77
2024-02-02T20:36:14.567Z,23.58
2024-02-02T20:38:43.110Z,26.80
2024-02-02T20:41:09.892Z,27.58
2024-02-02T20:43:36.692Z,22.50
2024-02-02T20:46:03.831Z,28.27
2024-02-02T20:48:30.736Z,23.48
2024-02-02T20:50:57.520Z,21.65
2024-02-02T20:53:24.263Z,24.15
2024-02-02T20:55:51.005Z,34.13
2024-02-02T20:58:17.823Z,34.42
2024-02-02T21:00:44.681Z,24.40
2024-02-02T21:03:12.090Z,29.10
2024-02-02T21:05:39.122Z,28.88
2024-02-02T21:08:06.253Z,25.98
2024-02-02T21:10:34.587Z,33.75
2024-02-02T21:13:01.279Z,24.83
2024-02-02T21:15:33.280Z,18.30
2024-02-02T21:18:07.290Z,21.55
2024-02-02T21:20:42.243Z,25.17
2024-02-02T21:23:09.405Z,23.05
2024-02-02T21:25:36.233Z,22.08
2024-02-02T21:28:08.332Z,21.40
2024-02-02T21:30:35.564Z,24.20
2024-02-02T21:35:29.068Z,16.77
2024-02-02T21:37:55.807Z,12.60
2024-02-02T21:40:22.512Z,17.00
2024-02-02T21:42:49.331Z,13.27
2024-02-02T21:45:16.140Z,15.77
2024-02-02T21:47:43.614Z,14.30
2024-02-02T21:50:10.775Z,11.23
2024-02-02T21:52:40.750Z,12.18
2024-02-02T21:55:07.923Z,13.20
2024-02-02T21:57:34.730Z,10.45
2024-02-02T22:00:05.925Z,15.95
2024-02-02T22:02:32.739Z,12.25
2024-02-02T22:04:59.533Z,11.23
2024-02-02T22:07:26.733Z,11.98
2024-02-02T22:09:53.884Z,12.00
2024-02-02T22:12:20.685Z,14.30
2024-02-02T22:14:47.677Z,11.25
2024-02-02T22:17:16.166Z,14.07
2024-02-02T22:19:43.035Z,12.10
2024-02-02T22:22:10.410Z,10.60
2024-02-02T22:24:41.402Z,11.82
2024-02-02T22:27:10.232Z,14.30
2024-02-02T22:29:37.341Z,15.00
2024-02-02T22:32:04.768Z,12.50
2024-02-02T22:34:31.846Z,9.50
2024-02-02T22:36:58.739Z,10.35
2024-02-02T22:39:25.578Z,13.38
2024-02-02T22:41:52.348Z,14.45
2024-02-02T22:44:19.199Z,12.52
2024-02-02T22:46:45.933Z,13.15
2024-02-02T22:49:13.059Z,11.68
2024-02-02T22:51:50.230Z,11.05
2024-02-02T22:54:18.315Z,12.02
2024-02-02T22:56:47.851Z,12.20
2024-02-02T22:59:14.821Z,11.73
2024-02-02T23:01:41.525Z,13.23
2024-02-02T23:04:08.494Z,14.75
2024-02-02T23:06:35.516Z,11.05
2024-02-02T23:09:02.291Z,14.20
2024-02-02T23:11:31.111Z,11.00
2024-02-02T23:13:57.976Z,13.00
2024-02-02T23:16:24.877Z,15.68
2024-02-02T23:18:52.006Z,12.48
2024-02-02T23:21:19.056Z,14.57
2024-02-02T23:23:48.153Z,15.23
2024-02-02T23:26:14.964Z,13.52
2024-02-02T23:28:42.074Z,12.25
2024-02-02T23:31:09.547Z,11.52
2024-02-02T23:33:36.571Z,9.50
2024-02-02T23:36:03.869Z,12.63
2024-02-02T23:40:57.659Z,12.00
2024-02-02T23:43:24.624Z,12.98
2024-02-02T23:45:52.020Z,10.50
2024-02-02T23:48:19.522Z,11.73
2024-02-02T23:50:46.640Z,11.98
2024-02-02T23:53:13.470Z,12.43
2024-02-02T23:55:40.208Z,11.15
2024-02-02T23:58:07.157Z,11.70
